Flight Track Log - Related Links

Times and Time Zones

All times are in EDT time to prevent confusion due to time zone crossing. See the AWI3725 flight status page for this flight to view local times or setup timezone preferences in your user account.

Time Position Orientation Groundspeed Altitude Reporting Facility
EDT Latitude Longitude Course Direction KTS MPH feet Rate Location/Type
Thu 01:27:17 PM 38.0986 -85.7244 98° East 187 215 5,100  Level Indianapolis Center
Thu 01:28:20 PM 38.0400 -85.6875 154° Southeast 229 264 7,400 2,352 Climbing Indianapolis Center
Thu 01:29:22 PM 38.0358 -85.5833 93° East 291 335 10,000 2,371 Climbing Indianapolis Center
Thu 01:30:24 PM 38.0483 -85.4686 82° East 318 366 12,300 2,177 Climbing Indianapolis Center
Thu 01:31:00 PM 38.0269 -85.0383 100° East  Level FlightAware Approximate
Thu 01:31:26 PM 38.0581 -85.3436 84° East 346 398 14,500  Level Indianapolis Center
Thu 01:32:00 PM 38.0103 -84.9083 98° East  Level FlightAware Approximate
Thu 01:32:28 PM 38.0739 -85.1933 82° East 378 435 16,800  Level Indianapolis Center
Thu 01:33:30 PM 38.0869 -85.0517 83° East 398 458 18,800 1,839 Climbing Indianapolis Center
Thu 01:34:32 PM 38.1011 -84.9039 83° East 412 474 20,600 1,742 Climbing Indianapolis Center
Thu 01:35:34 PM 38.1172 -84.7286 83° East 422 486 22,400 1,355 Climbing Indianapolis Center
Thu 01:36:36 PM 38.1317 -84.5722 83° East 440 506 23,400 1,248 Climbing Indianapolis Center
Thu 01:37:39 PM 38.1456 -84.4119 84° East 449 517 25,000 1,296 Climbing Indianapolis Center
Thu 01:38:41 PM 38.1594 -84.2508 84° East 452 520 26,100 1,065 Climbing Indianapolis Center
Thu 01:39:43 PM 38.1742 -84.0833 84° East 468 539 27,200 919 Climbing Indianapolis Center
Thu 01:40:45 PM 38.1908 -83.8808 84° East 486 559 28,000 774 Climbing Indianapolis Center
Thu 01:41:47 PM 38.2061 -83.7017 84° East 499 574 28,800 484 Climbing Indianapolis Center
Thu 01:42:49 PM 38.2206 -83.5217 84° East 505 581 29,000 97 Climbing Indianapolis Center
Thu 01:43:51 PM 38.2350 -83.3417 84° East 509 586 29,000  Level Indianapolis Center
Thu 01:44:53 PM 38.2492 -83.1611 84° East 509 586 29,000  Level Indianapolis Center
Thu 01:45:56 PM 38.2636 -82.9822 84° East 509 586 29,000  Level Indianapolis Center
Thu 01:46:58 PM 38.2792 -82.7725 85° East 509 586 29,000  Level Indianapolis Center
Thu 01:48:00 PM 38.2922 -82.5953 85° East 508 585 29,000  Level Indianapolis Center
Thu 01:49:02 PM 38.3050 -82.4189 85° East 507 583 29,000  Level Indianapolis Center
Thu 01:50:04 PM 38.3183 -82.2425 84° East 506 582 29,000  Level Indianapolis Center
Thu 01:51:06 PM 38.3297 -82.0658 85° East 504 580 29,000  Level Indianapolis Center
Thu 01:52:08 PM 38.3439 -81.8575 85° East 502 578 29,000  Level Indianapolis Center
Thu 01:53:10 PM 38.3467 -81.6836 89° East 498 573 29,000  Level Indianapolis Center
Thu 01:54:12 PM 38.3406 -81.5128 93° East 493 567 29,000  Level Indianapolis Center
Thu 01:55:15 PM 38.3356 -81.3408 92° East 493 567 29,000  Level Indianapolis Center
Thu 01:56:17 PM 38.3292 -81.1689 93° East 493 567 29,000  Level Indianapolis Center
Thu 01:57:19 PM 38.3217 -80.9628 93° East 492 566 29,000  Level Indianapolis Center
Thu 01:58:21 PM 38.3158 -80.7892 92° East 492 566 29,000  Level Indianapolis Center
Thu 01:59:23 PM 38.3097 -80.6172 93° East 491 565 29,000  Level Indianapolis Center
Thu 01:59:59 PM 38.3072 -80.5322 92° East 482 555 29,000  Level Washington Center
Thu 02:01:00 PM 38.3228 -80.3558 84° East 482 555 29,000  Level Washington Center
Thu 02:01:58 PM 38.3469 -80.1586 81° East 501 577 29,000  Level Washington Center
Thu 02:02:59 PM 38.3683 -79.9800 81° East 506 582 29,000  Level Washington Center
Thu 02:04:00 PM 38.3897 -79.7906 82° East 516 594 29,000  Level Washington Center
Thu 02:05:01 PM 38.4106 -79.6061 82° East 521 600 29,000  Level Washington Center
Thu 02:05:58 PM 38.4314 -79.4192 82° East 531 611 29,000 -555 Level Washington Center
Thu 02:07:00 PM 38.4492 -79.2503 82° East 536 617 27,900 -1,328 Descending Washington Center
Thu 02:08:00 PM 38.4692 -79.0683 82° East 531 611 26,300 -1,815 Descending Washington Center
Thu 02:08:59 PM 38.4953 -78.8758 80° East 510 587 24,300 -1,966 Descending Washington Center
Thu 02:09:59 PM 38.5228 -78.7125 78° East 491 565 22,400 -1,884 Descending Washington Center
Thu 02:11:00 PM 38.5478 -78.5489 79° East 477 549 20,500 -1,770 Descending Washington Center
Thu 02:12:01 PM 38.5722 -78.3906 79° East 460 529 18,800 -1,780 Descending Washington Center
Thu 02:12:58 PM 38.6028 -78.2350 76° East 455 524 17,000 -1,627 Descending Washington Center
Thu 02:13:59 PM 38.6478 -78.0931 68° East 435 501 15,600 -1,537 Descending Washington Center
Thu 02:14:59 PM 38.6900 -77.9589 68° East 419 482 13,900 -1,537 Descending Washington Center
Thu 02:16:00 PM 38.7464 -77.8489 57° Northeast 372 428 12,500 -1,377 Descending Washington Center
Thu 02:17:01 PM 38.8186 -77.7683 41° Northeast 358 412 11,100 -744 Descending Washington Center
Thu 02:18:01 PM 38.8642 -77.6764 58° Northeast 344 396 11,000 -1,252 Descending Washington Center
Thu 02:18:56 PM 38.9167 -77.5667 58° Northeast 311 358 8,700 -1,552 Descending Potomac TRACON
Thu 02:19:57 PM 38.9167 -77.4833 90° East 285 328 8,000 -595 Descending Potomac TRACON
Thu 02:20:57 PM 38.9000 -77.4000 104° East 236 272 7,500 -600 Descending Potomac TRACON
Thu 02:21:57 PM 38.8667 -77.3167 117° Southeast 223 257 6,800 -714 Descending Potomac TRACON
Thu 02:23:03 PM 38.8667 -77.2333 90° East 228 262 6,000 -378 Descending Potomac TRACON
Thu 02:24:04 PM 38.9000 -77.2667 322° Northwest 227 261 6,000 50 Level Potomac TRACON
Thu 02:25:04 PM 38.9333 -77.3167 311° West 174 200 6,100 -429 Climbing Potomac TRACON
Thu 02:26:10 PM 38.9833 -77.3500 333° Northwest 205 236 5,100 -500 Descending Potomac TRACON
Thu 02:27:04 PM 39.0167 -77.3000 49° Northeast 203 234 5,100 -750 Level Potomac TRACON
Thu 02:28:10 PM 39.0000 -77.2333 108° East 200 230 3,600 -950 Descending Potomac TRACON
Thu 02:29:04 PM 38.9833 -77.1833 113° Southeast 163 188 3,200 -700 Descending Potomac TRACON
Thu 02:30:10 PM 38.9500 -77.1333 131° Southeast 157 181 2,200 -850 Descending Potomac TRACON
Thu 02:31:11 PM 38.9167 -77.1000 142° Southeast 151 174 1,400 -744 Descending Potomac TRACON
Thu 02:32:11 PM 38.8833 -77.0667 142° Southeast 130 150 700 -700 Descending Potomac TRACON

Login

Don't have an account? Register now (free) for customized features, flight alerts, and more!